Terminal Aerodrome Forecast
Issued by NWS

Home | Current Version | Previous Version | Graphics & Text | Print | Product List | Glossary On
Versions: 1 2 3 4 5 6 7 8 9 10 11 12 13 14 15 16 17 18
000
FTUS43 KGRB 211126
TAFMTW
TAF
KMTW 211126Z 2112/2212 26012G18KT P6SM SCT250 WS020/28050KT
     FM211300 26017G25KT P6SM SCT250 WS020/28050KT
     FM211500 29017G28KT P6SM SCT030 BKN040
     FM220000 32011G17KT P6SM SCT035
     FM220400 31009KT P6SM SKC=

USA.gov is the U.S. government's official web portal to all federal, state and local government web resources and services.